Etusivu
METAR-TAF:

METAR-TAF

Lentoasemat :

Annaba, Algeria

Leveyspiiri: 36-50N, Pituuspiiri: 007-49E, korkeus merenpinnasta: 4 m

Tämänhetkinen sää

Tämä raportti tehtiin 21 minuuttia sitten, kello 10.30 UTC
tyyntä
Lämpötila 18°C
Kosteus 52%
Ilmanpaine 1021 hPa
Näkyvyys 10 km tai enemmän
ei pilviä alle 1500 m:ssä eikä cumulonimbus-pilviä

METAR: DABB 231030Z 00000KT CAVOK 18/08 Q1021

Aika: 11:51 (10:51 UTC)

Sääennuste

Tämä raportti tehtiin 5 tuntia ja 51 minuuttia sitten, kello 05.00 UTC
Ennuste voimassa 23. päivästä klo 06 UTC - 24. päivään klo 06 UTC
Tuuli 8 kn etelästä/kaakosta
Näkyvyys 10 km tai enemmän
Muutamia pilviä 4000 ft:n korkeudessa
Tulossa
23. päivästä klo 09 UTC - 23. päivään klo 11 UTC
Tuuli 6 kn pohjoisen/luoteesta

TAF: DABB 230500Z 2306/2406 15008KT 9999 FEW040 BECMG 2309/2311 34006KT

Säähavainnot ja -ennusteet yli 4000 lentoasemalta (METAR- ja TAF-raportit).

Käytössä olevat sääasemat on merkitty karttaan keltaisilla ja punaisilla pisteillä.

Aseta hiiri pisteen päälle nähdäksesi sääaseman nimen.

Klikkaa sitten nähdäksesi säähavainnot ja -ennusteet.

Kartan vaihtaminen: klikkaa mustalla rastilla varustettuja vihreitä pisteitä, niin voit zoomata sisään; viivalla varustettua vihreää pistettä, niin voit zoomata ulos tai vihreitä nuolia, niin pääset viereisille kartoille.


METAR-TAF: